sensor_id;sensor_type;location;lat;lon;timestamp;P1;durP1;ratioP1;P2;durP2;ratioP2
35959;SDS011;22043;50.970;7.192;2023-06-14T00:00:10;4.72;;;2.88;;
35959;SDS011;22043;50.970;7.192;2023-06-14T00:02:38;7.15;;;3.28;;
35959;SDS011;22043;50.970;7.192;2023-06-14T00:05:04;5.47;;;2.80;;
35959;SDS011;22043;50.970;7.192;2023-06-14T00:07:34;5.07;;;2.65;;
35959;SDS011;22043;50.970;7.192;2023-06-14T00:10:01;8.10;;;3.20;;
35959;SDS011;22043;50.970;7.192;2023-06-14T00:12:27;5.95;;;2.95;;
35959;SDS011;22043;50.970;7.192;2023-06-14T00:14:52;5.60;;;3.03;;
35959;SDS011;22043;50.970;7.192;2023-06-14T00:17:18;4.72;;;2.80;;
35959;SDS011;22043;50.970;7.192;2023-06-14T00:19:46;6.45;;;2.63;;
35959;SDS011;22043;50.970;7.192;2023-06-14T00:22:12;5.70;;;2.88;;
35959;SDS011;22043;50.970;7.192;2023-06-14T00:24:37;6.45;;;2.70;;
35959;SDS011;22043;50.970;7.192;2023-06-14T00:27:03;6.45;;;2.58;;
35959;SDS011;22043;50.970;7.192;2023-06-14T00:29:28;7.07;;;2.80;;
35959;SDS011;22043;50.970;7.192;2023-06-14T00:31:55;4.45;;;2.72;;
35959;SDS011;22043;50.970;7.192;2023-06-14T00:34:20;4.90;;;2.53;;
35959;SDS011;22043;50.970;7.192;2023-06-14T00:36:46;6.57;;;3.13;;
35959;SDS011;22043;50.970;7.192;2023-06-14T00:39:13;4.90;;;2.47;;
35959;SDS011;22043;50.970;7.192;2023-06-14T00:41:39;6.53;;;3.00;;
35959;SDS011;22043;50.970;7.192;2023-06-14T00:44:04;7.07;;;2.67;;
35959;SDS011;22043;50.970;7.192;2023-06-14T00:46:30;7.47;;;2.90;;
35959;SDS011;22043;50.970;7.192;2023-06-14T00:48:56;5.15;;;2.67;;
35959;SDS011;22043;50.970;7.192;2023-06-14T00:51:22;5.20;;;2.50;;
35959;SDS011;22043;50.970;7.192;2023-06-14T00:53:47;4.45;;;2.65;;
35959;SDS011;22043;50.970;7.192;2023-06-14T00:56:13;5.07;;;2.53;;
35959;SDS011;22043;50.970;7.192;2023-06-14T00:58:41;5.95;;;2.45;;
35959;SDS011;22043;50.970;7.192;2023-06-14T01:01:06;6.93;;;2.55;;
35959;SDS011;22043;50.970;7.192;2023-06-14T01:03:33;6.03;;;2.67;;
35959;SDS011;22043;50.970;7.192;2023-06-14T01:06:05;6.65;;;2.45;;
35959;SDS011;22043;50.970;7.192;2023-06-14T01:11:45;6.10;;;2.80;;
35959;SDS011;22043;50.970;7.192;2023-06-14T01:14:16;6.70;;;2.58;;
35959;SDS011;22043;50.970;7.192;2023-06-14T01:16:45;4.75;;;2.50;;
35959;SDS011;22043;50.970;7.192;2023-06-14T01:21:41;6.22;;;2.45;;
35959;SDS011;22043;50.970;7.192;2023-06-14T01:24:10;5.40;;;2.83;;
35959;SDS011;22043;50.970;7.192;2023-06-14T01:26:40;4.18;;;2.38;;
35959;SDS011;22043;50.970;7.192;2023-06-14T01:29:18;6.13;;;3.03;;
35959;SDS011;22043;50.970;7.192;2023-06-14T01:31:44;5.35;;;2.50;;
35959;SDS011;22043;50.970;7.192;2023-06-14T01:34:11;6.00;;;2.10;;
35959;SDS011;22043;50.970;7.192;2023-06-14T01:36:46;4.22;;;2.55;;
35959;SDS011;22043;50.970;7.192;2023-06-14T01:39:14;4.35;;;2.10;;
35959;SDS011;22043;50.970;7.192;2023-06-14T01:41:48;4.70;;;2.58;;
35959;SDS011;22043;50.970;7.192;2023-06-14T01:44:19;3.78;;;2.28;;
35959;SDS011;22043;50.970;7.192;2023-06-14T01:46:48;6.07;;;2.53;;
35959;SDS011;22043;50.970;7.192;2023-06-14T01:49:15;4.10;;;2.15;;
35959;SDS011;22043;50.970;7.192;2023-06-14T01:51:42;5.32;;;2.13;;
35959;SDS011;22043;50.970;7.192;2023-06-14T01:54:10;9.85;;;2.45;;
35959;SDS011;22043;50.970;7.192;2023-06-14T01:56:37;6.20;;;2.33;;
35959;SDS011;22043;50.970;7.192;2023-06-14T01:59:03;3.60;;;2.00;;
35959;SDS011;22043;50.970;7.192;2023-06-14T02:01:29;4.50;;;2.35;;
35959;SDS011;22043;50.970;7.192;2023-06-14T02:03:58;8.07;;;2.60;;
35959;SDS011;22043;50.970;7.192;2023-06-14T02:06:39;4.45;;;2.33;;
35959;SDS011;22043;50.970;7.192;2023-06-14T02:09:16;5.18;;;2.28;;
35959;SDS011;22043;50.970;7.192;2023-06-14T02:11:45;7.28;;;2.38;;
35959;SDS011;22043;50.970;7.192;2023-06-14T02:14:12;6.50;;;2.30;;
35959;SDS011;22043;50.970;7.192;2023-06-14T02:16:40;6.05;;;2.35;;
35959;SDS011;22043;50.970;7.192;2023-06-14T02:19:17;6.88;;;2.40;;
35959;SDS011;22043;50.970;7.192;2023-06-14T02:21:45;4.15;;;2.10;;
35959;SDS011;22043;50.970;7.192;2023-06-14T02:24:18;4.20;;;2.25;;
35959;SDS011;22043;50.970;7.192;2023-06-14T02:32:09;6.25;;;2.15;;
35959;SDS011;22043;50.970;7.192;2023-06-14T02:34:37;7.50;;;2.33;;
35959;SDS011;22043;50.970;7.192;2023-06-14T02:37:07;4.00;;;2.60;;
35959;SDS011;22043;50.970;7.192;2023-06-14T02:39:34;3.88;;;2.60;;
35959;SDS011;22043;50.970;7.192;2023-06-14T02:42:02;8.18;;;2.22;;
35959;SDS011;22043;50.970;7.192;2023-06-14T02:44:31;8.85;;;2.67;;
35959;SDS011;22043;50.970;7.192;2023-06-14T02:46:59;6.25;;;2.25;;
35959;SDS011;22043;50.970;7.192;2023-06-14T02:49:26;6.72;;;2.10;;
35959;SDS011;22043;50.970;7.192;2023-06-14T02:51:53;6.70;;;2.15;;
35959;SDS011;22043;50.970;7.192;2023-06-14T02:54:21;7.18;;;2.05;;
35959;SDS011;22043;50.970;7.192;2023-06-14T02:56:47;5.22;;;2.17;;
35959;SDS011;22043;50.970;7.192;2023-06-14T02:59:13;5.50;;;2.28;;
35959;SDS011;22043;50.970;7.192;2023-06-14T03:01:42;4.07;;;2.05;;
35959;SDS011;22043;50.970;7.192;2023-06-14T03:04:14;5.70;;;2.25;;
35959;SDS011;22043;50.970;7.192;2023-06-14T03:06:41;5.35;;;2.15;;
35959;SDS011;22043;50.970;7.192;2023-06-14T03:09:10;4.93;;;2.53;;
35959;SDS011;22043;50.970;7.192;2023-06-14T03:11:38;7.38;;;2.30;;
35959;SDS011;22043;50.970;7.192;2023-06-14T03:14:04;4.10;;;1.98;;
35959;SDS011;22043;50.970;7.192;2023-06-14T03:16:32;5.90;;;2.75;;
35959;SDS011;22043;50.970;7.192;2023-06-14T03:18:59;5.30;;;2.20;;
35959;SDS011;22043;50.970;7.192;2023-06-14T03:21:27;5.72;;;2.00;;
35959;SDS011;22043;50.970;7.192;2023-06-14T03:23:56;4.68;;;1.92;;
35959;SDS011;22043;50.970;7.192;2023-06-14T03:26:23;4.55;;;2.17;;
35959;SDS011;22043;50.970;7.192;2023-06-14T03:28:52;6.30;;;2.20;;
35959;SDS011;22043;50.970;7.192;2023-06-14T03:31:20;6.53;;;1.80;;
35959;SDS011;22043;50.970;7.192;2023-06-14T03:33:45;6.65;;;2.35;;
35959;SDS011;22043;50.970;7.192;2023-06-14T03:36:12;5.70;;;2.10;;
35959;SDS011;22043;50.970;7.192;2023-06-14T03:38:38;5.68;;;2.47;;
35959;SDS011;22043;50.970;7.192;2023-06-14T03:41:05;10.35;;;2.40;;
35959;SDS011;22043;50.970;7.192;2023-06-14T03:43:31;4.38;;;2.28;;
35959;SDS011;22043;50.970;7.192;2023-06-14T03:45:57;4.82;;;1.95;;
35959;SDS011;22043;50.970;7.192;2023-06-14T03:48:24;8.13;;;2.20;;
35959;SDS011;22043;50.970;7.192;2023-06-14T03:50:49;6.00;;;2.40;;
35959;SDS011;22043;50.970;7.192;2023-06-14T03:53:15;3.53;;;1.90;;
35959;SDS011;22043;50.970;7.192;2023-06-14T03:55:45;8.48;;;2.17;;
35959;SDS011;22043;50.970;7.192;2023-06-14T03:58:23;5.22;;;2.17;;
35959;SDS011;22043;50.970;7.192;2023-06-14T04:00:51;4.68;;;1.80;;
35959;SDS011;22043;50.970;7.192;2023-06-14T04:03:17;4.03;;;1.98;;
35959;SDS011;22043;50.970;7.192;2023-06-14T04:05:44;4.78;;;2.22;;
35959;SDS011;22043;50.970;7.192;2023-06-14T04:08:14;6.40;;;1.90;;
35959;SDS011;22043;50.970;7.192;2023-06-14T04:10:41;4.60;;;2.00;;
35959;SDS011;22043;50.970;7.192;2023-06-14T04:13:06;5.63;;;2.03;;
35959;SDS011;22043;50.970;7.192;2023-06-14T04:15:32;6.93;;;2.05;;
35959;SDS011;22043;50.970;7.192;2023-06-14T04:18:00;6.47;;;2.42;;
35959;SDS011;22043;50.970;7.192;2023-06-14T04:20:25;7.10;;;2.10;;
35959;SDS011;22043;50.970;7.192;2023-06-14T04:22:51;6.32;;;2.10;;
35959;SDS011;22043;50.970;7.192;2023-06-14T04:25:23;2.80;;;1.70;;
35959;SDS011;22043;50.970;7.192;2023-06-14T04:27:51;6.70;;;2.40;;
35959;SDS011;22043;50.970;7.192;2023-06-14T04:30:17;8.30;;;2.38;;
35959;SDS011;22043;50.970;7.192;2023-06-14T04:32:47;5.18;;;1.92;;
35959;SDS011;22043;50.970;7.192;2023-06-14T04:35:15;5.78;;;1.98;;
35959;SDS011;22043;50.970;7.192;2023-06-14T04:38:01;6.55;;;1.98;;
35959;SDS011;22043;50.970;7.192;2023-06-14T04:40:29;3.78;;;2.17;;
35959;SDS011;22043;50.970;7.192;2023-06-14T04:42:55;4.18;;;2.45;;
35959;SDS011;22043;50.970;7.192;2023-06-14T04:45:24;4.13;;;1.77;;
35959;SDS011;22043;50.970;7.192;2023-06-14T04:47:50;3.97;;;2.20;;
35959;SDS011;22043;50.970;7.192;2023-06-14T04:50:18;4.75;;;2.20;;
35959;SDS011;22043;50.970;7.192;2023-06-14T04:52:45;6.45;;;2.22;;
35959;SDS011;22043;50.970;7.192;2023-06-14T04:55:17;5.03;;;2.25;;
35959;SDS011;22043;50.970;7.192;2023-06-14T05:00:56;8.80;;;2.60;;
35959;SDS011;22043;50.970;7.192;2023-06-14T05:03:27;4.80;;;2.35;;
35959;SDS011;22043;50.970;7.192;2023-06-14T05:06:16;9.13;;;2.20;;
35959;SDS011;22043;50.970;7.192;2023-06-14T05:08:51;5.25;;;1.90;;
35959;SDS011;22043;50.970;7.192;2023-06-14T05:11:25;4.70;;;2.33;;
35959;SDS011;22043;50.970;7.192;2023-06-14T05:14:07;4.15;;;2.28;;
35959;SDS011;22043;50.970;7.192;2023-06-14T05:16:33;3.67;;;2.10;;
35959;SDS011;22043;50.970;7.192;2023-06-14T05:19:02;3.75;;;1.60;;
35959;SDS011;22043;50.970;7.192;2023-06-14T05:21:38;7.70;;;1.85;;
35959;SDS011;22043;50.970;7.192;2023-06-14T05:24:04;3.70;;;1.80;;
35959;SDS011;22043;50.970;7.192;2023-06-14T05:26:33;4.60;;;1.73;;
35959;SDS011;22043;50.970;7.192;2023-06-14T05:28:59;6.53;;;2.28;;
35959;SDS011;22043;50.970;7.192;2023-06-14T05:31:26;4.20;;;2.10;;
35959;SDS011;22043;50.970;7.192;2023-06-14T05:33:53;4.05;;;1.63;;
35959;SDS011;22043;50.970;7.192;2023-06-14T05:36:26;4.40;;;1.85;;
35959;SDS011;22043;50.970;7.192;2023-06-14T05:41:53;4.75;;;1.73;;
35959;SDS011;22043;50.970;7.192;2023-06-14T05:44:19;5.65;;;1.92;;
35959;SDS011;22043;50.970;7.192;2023-06-14T05:46:45;3.97;;;1.73;;
35959;SDS011;22043;50.970;7.192;2023-06-14T05:49:10;8.05;;;1.85;;
35959;SDS011;22043;50.970;7.192;2023-06-14T06:14:12;3.95;;;2.10;;
35959;SDS011;22043;50.970;7.192;2023-06-14T06:16:40;5.90;;;1.63;;
35959;SDS011;22043;50.970;7.192;2023-06-14T06:19:07;2.97;;;1.42;;
35959;SDS011;22043;50.970;7.192;2023-06-14T06:21:32;3.92;;;1.73;;
35959;SDS011;22043;50.970;7.192;2023-06-14T06:23:58;5.18;;;2.15;;
35959;SDS011;22043;50.970;7.192;2023-06-14T06:26:23;3.30;;;1.60;;
35959;SDS011;22043;50.970;7.192;2023-06-14T06:28:49;2.97;;;1.45;;
35959;SDS011;22043;50.970;7.192;2023-06-14T06:31:14;5.10;;;1.70;;
35959;SDS011;22043;50.970;7.192;2023-06-14T06:33:40;6.43;;;1.92;;
35959;SDS011;22043;50.970;7.192;2023-06-14T06:36:06;3.63;;;2.03;;
35959;SDS011;22043;50.970;7.192;2023-06-14T06:38:31;4.47;;;1.70;;
35959;SDS011;22043;50.970;7.192;2023-06-14T06:40:57;5.70;;;1.75;;
35959;SDS011;22043;50.970;7.192;2023-06-14T06:43:22;5.00;;;2.20;;
35959;SDS011;22043;50.970;7.192;2023-06-14T06:45:48;3.60;;;1.55;;
35959;SDS011;22043;50.970;7.192;2023-06-14T06:48:14;2.97;;;1.50;;
35959;SDS011;22043;50.970;7.192;2023-06-14T06:50:41;3.28;;;1.75;;
35959;SDS011;22043;50.970;7.192;2023-06-14T06:53:06;3.88;;;1.55;;
35959;SDS011;22043;50.970;7.192;2023-06-14T06:55:32;4.78;;;1.30;;
35959;SDS011;22043;50.970;7.192;2023-06-14T06:57:57;6.18;;;1.73;;
35959;SDS011;22043;50.970;7.192;2023-06-14T07:00:23;2.95;;;1.33;;
35959;SDS011;22043;50.970;7.192;2023-06-14T07:02:49;1.80;;;1.02;;
35959;SDS011;22043;50.970;7.192;2023-06-14T07:05:14;3.33;;;1.30;;
35959;SDS011;22043;50.970;7.192;2023-06-14T07:07:40;3.92;;;1.45;;
35959;SDS011;22043;50.970;7.192;2023-06-14T07:10:05;3.38;;;1.20;;
35959;SDS011;22043;50.970;7.192;2023-06-14T07:12:32;2.03;;;1.10;;
35959;SDS011;22043;50.970;7.192;2023-06-14T07:14:59;2.78;;;1.48;;
35959;SDS011;22043;50.970;7.192;2023-06-14T07:17:26;2.60;;;1.08;;
35959;SDS011;22043;50.970;7.192;2023-06-14T07:19:51;2.60;;;1.25;;
35959;SDS011;22043;50.970;7.192;2023-06-14T07:22:18;2.33;;;0.98;;
35959;SDS011;22043;50.970;7.192;2023-06-14T07:24:44;3.78;;;0.90;;
35959;SDS011;22043;50.970;7.192;2023-06-14T07:27:09;2.30;;;1.02;;
35959;SDS011;22043;50.970;7.192;2023-06-14T07:29:35;1.42;;;0.90;;
35959;SDS011;22043;50.970;7.192;2023-06-14T07:32:01;2.33;;;0.90;;
35959;SDS011;22043;50.970;7.192;2023-06-14T07:34:29;1.42;;;0.68;;
35959;SDS011;22043;50.970;7.192;2023-06-14T07:36:54;1.30;;;0.73;;
35959;SDS011;22043;50.970;7.192;2023-06-14T07:39:20;3.92;;;1.02;;
35959;SDS011;22043;50.970;7.192;2023-06-14T07:41:45;1.85;;;0.73;;
35959;SDS011;22043;50.970;7.192;2023-06-14T07:44:11;2.08;;;0.80;;
35959;SDS011;22043;50.970;7.192;2023-06-14T07:46:37;1.83;;;0.80;;
35959;SDS011;22043;50.970;7.192;2023-06-14T07:49:03;1.45;;;0.68;;
35959;SDS011;22043;50.970;7.192;2023-06-14T07:51:29;1.85;;;1.10;;
35959;SDS011;22043;50.970;7.192;2023-06-14T07:53:54;2.08;;;0.73;;
35959;SDS011;22043;50.970;7.192;2023-06-14T07:56:20;3.40;;;0.80;;
35959;SDS011;22043;50.970;7.192;2023-06-14T07:58:49;2.05;;;0.88;;
35959;SDS011;22043;50.970;7.192;2023-06-14T08:01:14;3.10;;;1.00;;
35959;SDS011;22043;50.970;7.192;2023-06-14T08:03:40;1.65;;;0.88;;
35959;SDS011;22043;50.970;7.192;2023-06-14T08:06:06;1.90;;;0.90;;
35959;SDS011;22043;50.970;7.192;2023-06-14T08:08:31;4.57;;;1.20;;
35959;SDS011;22043;50.970;7.192;2023-06-14T08:10:58;2.00;;;0.90;;
35959;SDS011;22043;50.970;7.192;2023-06-14T08:13:24;3.63;;;0.90;;
35959;SDS011;22043;50.970;7.192;2023-06-14T08:15:49;2.28;;;0.82;;
35959;SDS011;22043;50.970;7.192;2023-06-14T08:18:15;2.08;;;0.80;;
35959;SDS011;22043;50.970;7.192;2023-06-14T08:20:42;2.90;;;0.95;;
35959;SDS011;22043;50.970;7.192;2023-06-14T08:25:34;3.42;;;1.15;;
35959;SDS011;22043;50.970;7.192;2023-06-14T08:27:59;2.00;;;0.70;;
35959;SDS011;22043;50.970;7.192;2023-06-14T08:30:25;2.50;;;1.10;;
35959;SDS011;22043;50.970;7.192;2023-06-14T08:32:51;2.63;;;0.80;;
35959;SDS011;22043;50.970;7.192;2023-06-14T08:35:17;1.67;;;0.68;;
35959;SDS011;22043;50.970;7.192;2023-06-14T08:37:45;3.20;;;1.00;;
35959;SDS011;22043;50.970;7.192;2023-06-14T08:40:20;4.63;;;1.00;;
35959;SDS011;22043;50.970;7.192;2023-06-14T08:42:53;1.88;;;1.02;;
35959;SDS011;22043;50.970;7.192;2023-06-14T08:45:19;2.95;;;1.20;;
35959;SDS011;22043;50.970;7.192;2023-06-14T08:47:47;1.95;;;0.65;;
35959;SDS011;22043;50.970;7.192;2023-06-14T08:50:23;2.05;;;0.95;;
35959;SDS011;22043;50.970;7.192;2023-06-14T08:53:13;3.13;;;0.95;;
35959;SDS011;22043;50.970;7.192;2023-06-14T08:55:45;4.10;;;1.02;;
35959;SDS011;22043;50.970;7.192;2023-06-14T08:58:12;2.13;;;0.63;;
35959;SDS011;22043;50.970;7.192;2023-06-14T09:00:39;12.73;;;1.17;;
35959;SDS011;22043;50.970;7.192;2023-06-14T09:03:10;3.72;;;0.98;;
35959;SDS011;22043;50.970;7.192;2023-06-14T09:05:39;1.77;;;0.80;;
35959;SDS011;22043;50.970;7.192;2023-06-14T09:08:04;1.90;;;0.73;;
35959;SDS011;22043;50.970;7.192;2023-06-14T09:10:31;2.42;;;0.90;;
35959;SDS011;22043;50.970;7.192;2023-06-14T09:13:02;3.05;;;0.77;;
35959;SDS011;22043;50.970;7.192;2023-06-14T09:15:30;2.03;;;0.90;;
35959;SDS011;22043;50.970;7.192;2023-06-14T09:17:56;3.28;;;0.82;;
35959;SDS011;22043;50.970;7.192;2023-06-14T09:20:23;1.50;;;0.60;;
35959;SDS011;22043;50.970;7.192;2023-06-14T09:22:49;2.00;;;0.70;;
35959;SDS011;22043;50.970;7.192;2023-06-14T09:25:18;3.17;;;0.80;;
35959;SDS011;22043;50.970;7.192;2023-06-14T09:27:45;1.70;;;0.70;;
35959;SDS011;22043;50.970;7.192;2023-06-14T09:30:12;1.40;;;0.65;;
35959;SDS011;22043;50.970;7.192;2023-06-14T09:32:39;3.55;;;0.90;;
35959;SDS011;22043;50.970;7.192;2023-06-14T09:35:08;2.55;;;0.82;;
35959;SDS011;22043;50.970;7.192;2023-06-14T09:37:34;2.45;;;0.93;;
35959;SDS011;22043;50.970;7.192;2023-06-14T09:40:00;2.53;;;0.80;;
35959;SDS011;22043;50.970;7.192;2023-06-14T09:42:29;1.65;;;0.85;;
35959;SDS011;22043;50.970;7.192;2023-06-14T09:44:55;1.30;;;0.77;;
35959;SDS011;22043;50.970;7.192;2023-06-14T09:47:22;2.55;;;0.65;;
35959;SDS011;22043;50.970;7.192;2023-06-14T09:49:48;2.00;;;0.93;;
35959;SDS011;22043;50.970;7.192;2023-06-14T09:52:15;2.58;;;0.90;;
35959;SDS011;22043;50.970;7.192;2023-06-14T09:54:44;2.97;;;1.45;;
35959;SDS011;22043;50.970;7.192;2023-06-14T09:57:27;1.73;;;0.82;;
35959;SDS011;22043;50.970;7.192;2023-06-14T10:05:07;1.70;;;0.93;;
35959;SDS011;22043;50.970;7.192;2023-06-14T10:07:35;1.40;;;0.70;;
35959;SDS011;22043;50.970;7.192;2023-06-14T10:10:04;2.00;;;0.90;;
35959;SDS011;22043;50.970;7.192;2023-06-14T10:12:31;1.37;;;0.80;;
35959;SDS011;22043;50.970;7.192;2023-06-14T10:14:56;2.08;;;0.82;;
35959;SDS011;22043;50.970;7.192;2023-06-14T10:17:33;2.10;;;1.00;;
35959;SDS011;22043;50.970;7.192;2023-06-14T10:20:19;3.40;;;1.10;;
35959;SDS011;22043;50.970;7.192;2023-06-14T10:22:51;1.90;;;0.77;;
35959;SDS011;22043;50.970;7.192;2023-06-14T10:25:26;1.92;;;0.80;;
35959;SDS011;22043;50.970;7.192;2023-06-14T10:28:40;6.32;;;0.90;;
35959;SDS011;22043;50.970;7.192;2023-06-14T10:33:29;2.90;;;1.40;;
35959;SDS011;22043;50.970;7.192;2023-06-14T10:39:00;4.25;;;1.52;;
35959;SDS011;22043;50.970;7.192;2023-06-14T10:41:30;2.83;;;0.93;;
35959;SDS011;22043;50.970;7.192;2023-06-14T10:46:38;1.88;;;0.95;;
35959;SDS011;22043;50.970;7.192;2023-06-14T10:49:17;2.70;;;0.90;;
35959;SDS011;22043;50.970;7.192;2023-06-14T10:51:54;3.40;;;1.08;;
35959;SDS011;22043;50.970;7.192;2023-06-14T10:54:23;2.22;;;1.10;;
35959;SDS011;22043;50.970;7.192;2023-06-14T10:56:50;3.40;;;1.00;;
35959;SDS011;22043;50.970;7.192;2023-06-14T10:59:19;3.55;;;0.80;;
35959;SDS011;22043;50.970;7.192;2023-06-14T11:04:48;2.83;;;0.68;;
35959;SDS011;22043;50.970;7.192;2023-06-14T11:10:09;1.35;;;0.70;;
35959;SDS011;22043;50.970;7.192;2023-06-14T11:12:52;2.00;;;0.68;;
35959;SDS011;22043;50.970;7.192;2023-06-14T11:15:20;1.75;;;0.88;;
35959;SDS011;22043;50.970;7.192;2023-06-14T11:17:51;1.42;;;0.77;;
35959;SDS011;22043;50.970;7.192;2023-06-14T11:20:18;1.35;;;0.57;;
35959;SDS011;22043;50.970;7.192;2023-06-14T11:22:44;4.18;;;0.80;;
35959;SDS011;22043;50.970;7.192;2023-06-14T11:25:13;1.38;;;0.70;;
35959;SDS011;22043;50.970;7.192;2023-06-14T11:27:41;1.35;;;0.70;;
35959;SDS011;22043;50.970;7.192;2023-06-14T11:30:07;1.52;;;0.70;;
35959;SDS011;22043;50.970;7.192;2023-06-14T11:32:35;1.65;;;0.82;;
35959;SDS011;22043;50.970;7.192;2023-06-14T11:35:04;2.08;;;0.80;;
35959;SDS011;22043;50.970;7.192;2023-06-14T11:37:31;1.30;;;0.55;;
35959;SDS011;22043;50.970;7.192;2023-06-14T11:40:00;0.85;;;0.55;;
35959;SDS011;22043;50.970;7.192;2023-06-14T11:42:27;1.67;;;0.80;;
35959;SDS011;22043;50.970;7.192;2023-06-14T11:44:53;1.83;;;0.73;;
35959;SDS011;22043;50.970;7.192;2023-06-14T11:50:41;2.88;;;0.57;;
35959;SDS011;22043;50.970;7.192;2023-06-14T11:55:38;4.05;;;0.80;;
35959;SDS011;22043;50.970;7.192;2023-06-14T11:58:05;1.77;;;0.80;;
35959;SDS011;22043;50.970;7.192;2023-06-14T12:00:31;1.85;;;0.70;;
35959;SDS011;22043;50.970;7.192;2023-06-14T12:02:57;2.13;;;0.80;;
35959;SDS011;22043;50.970;7.192;2023-06-14T12:05:23;1.33;;;0.60;;
35959;SDS011;22043;50.970;7.192;2023-06-14T12:07:50;2.50;;;0.70;;
35959;SDS011;22043;50.970;7.192;2023-06-14T12:10:18;0.88;;;0.50;;
35959;SDS011;22043;50.970;7.192;2023-06-14T12:12:44;1.38;;;0.68;;
35959;SDS011;22043;50.970;7.192;2023-06-14T12:15:10;4.00;;;0.70;;
35959;SDS011;22043;50.970;7.192;2023-06-14T12:17:38;2.30;;;0.63;;
35959;SDS011;22043;50.970;7.192;2023-06-14T12:20:10;1.67;;;0.63;;
35959;SDS011;22043;50.970;7.192;2023-06-14T12:22:39;3.15;;;0.90;;
35959;SDS011;22043;50.970;7.192;2023-06-14T12:25:05;3.65;;;0.60;;
35959;SDS011;22043;50.970;7.192;2023-06-14T12:27:30;1.98;;;0.77;;
35959;SDS011;22043;50.970;7.192;2023-06-14T12:30:02;2.08;;;1.10;;
35959;SDS011;22043;50.970;7.192;2023-06-14T12:32:29;3.05;;;0.90;;
35959;SDS011;22043;50.970;7.192;2023-06-14T12:34:55;4.78;;;0.70;;
35959;SDS011;22043;50.970;7.192;2023-06-14T12:37:21;2.70;;;0.80;;
35959;SDS011;22043;50.970;7.192;2023-06-14T12:39:47;2.00;;;0.82;;
35959;SDS011;22043;50.970;7.192;2023-06-14T12:42:13;2.58;;;0.77;;
35959;SDS011;22043;50.970;7.192;2023-06-14T12:44:39;3.17;;;0.73;;
35959;SDS011;22043;50.970;7.192;2023-06-14T12:47:06;3.13;;;0.90;;
35959;SDS011;22043;50.970;7.192;2023-06-14T12:49:32;1.33;;;0.80;;
35959;SDS011;22043;50.970;7.192;2023-06-14T12:51:58;2.40;;;0.70;;
35959;SDS011;22043;50.970;7.192;2023-06-14T12:54:24;5.22;;;1.10;;
35959;SDS011;22043;50.970;7.192;2023-06-14T12:56:51;1.60;;;1.05;;
35959;SDS011;22043;50.970;7.192;2023-06-14T12:59:17;2.05;;;0.90;;
35959;SDS011;22043;50.970;7.192;2023-06-14T13:01:43;2.53;;;0.80;;
35959;SDS011;22043;50.970;7.192;2023-06-14T13:04:09;2.30;;;1.00;;
35959;SDS011;22043;50.970;7.192;2023-06-14T13:06:35;5.30;;;1.00;;
35959;SDS011;22043;50.970;7.192;2023-06-14T13:09:01;3.50;;;0.80;;
35959;SDS011;22043;50.970;7.192;2023-06-14T13:11:28;2.40;;;1.10;;
35959;SDS011;22043;50.970;7.192;2023-06-14T13:13:54;3.72;;;1.13;;
35959;SDS011;22043;50.970;7.192;2023-06-14T13:16:20;5.18;;;1.08;;
35959;SDS011;22043;50.970;7.192;2023-06-14T13:18:45;1.63;;;0.88;;
35959;SDS011;22043;50.970;7.192;2023-06-14T13:21:11;2.08;;;0.93;;
35959;SDS011;22043;50.970;7.192;2023-06-14T13:23:36;1.80;;;0.80;;
35959;SDS011;22043;50.970;7.192;2023-06-14T13:26:02;3.22;;;0.80;;
35959;SDS011;22043;50.970;7.192;2023-06-14T13:28:27;1.60;;;0.80;;
35959;SDS011;22043;50.970;7.192;2023-06-14T13:30:53;1.50;;;0.70;;
35959;SDS011;22043;50.970;7.192;2023-06-14T13:33:20;1.75;;;0.90;;
35959;SDS011;22043;50.970;7.192;2023-06-14T13:35:46;2.65;;;0.88;;
35959;SDS011;22043;50.970;7.192;2023-06-14T13:38:13;1.92;;;1.08;;
35959;SDS011;22043;50.970;7.192;2023-06-14T13:40:40;3.97;;;0.85;;
35959;SDS011;22043;50.970;7.192;2023-06-14T13:43:05;2.25;;;1.10;;
35959;SDS011;22043;50.970;7.192;2023-06-14T13:45:31;1.55;;;0.88;;
35959;SDS011;22043;50.970;7.192;2023-06-14T13:47:57;1.42;;;0.90;;
35959;SDS011;22043;50.970;7.192;2023-06-14T13:50:22;2.47;;;0.90;;
35959;SDS011;22043;50.970;7.192;2023-06-14T13:52:48;2.10;;;1.00;;
35959;SDS011;22043;50.970;7.192;2023-06-14T13:55:14;3.65;;;0.98;;
35959;SDS011;22043;50.970;7.192;2023-06-14T13:57:39;3.10;;;1.10;;
35959;SDS011;22043;50.970;7.192;2023-06-14T14:00:05;1.52;;;0.80;;
35959;SDS011;22043;50.970;7.192;2023-06-14T14:02:40;2.65;;;1.00;;
35959;SDS011;22043;50.970;7.192;2023-06-14T14:05:07;3.05;;;1.00;;
35959;SDS011;22043;50.970;7.192;2023-06-14T14:07:33;3.00;;;1.10;;
35959;SDS011;22043;50.970;7.192;2023-06-14T14:09:59;4.18;;;1.10;;
35959;SDS011;22043;50.970;7.192;2023-06-14T14:12:25;3.03;;;0.90;;
35959;SDS011;22043;50.970;7.192;2023-06-14T14:14:50;2.60;;;1.00;;
35959;SDS011;22043;50.970;7.192;2023-06-14T14:17:16;1.83;;;0.90;;
35959;SDS011;22043;50.970;7.192;2023-06-14T14:19:45;2.80;;;1.08;;
35959;SDS011;22043;50.970;7.192;2023-06-14T14:22:15;2.38;;;0.98;;
35959;SDS011;22043;50.970;7.192;2023-06-14T14:24:41;1.75;;;0.90;;
35959;SDS011;22043;50.970;7.192;2023-06-14T14:27:06;2.05;;;1.15;;
35959;SDS011;22043;50.970;7.192;2023-06-14T14:29:33;2.28;;;0.95;;
35959;SDS011;22043;50.970;7.192;2023-06-14T14:31:58;2.47;;;0.85;;
35959;SDS011;22043;50.970;7.192;2023-06-14T14:34:24;4.30;;;1.30;;
35959;SDS011;22043;50.970;7.192;2023-06-14T14:36:51;2.53;;;0.90;;
35959;SDS011;22043;50.970;7.192;2023-06-14T14:39:17;2.40;;;1.00;;
35959;SDS011;22043;50.970;7.192;2023-06-14T14:41:42;3.88;;;1.13;;
35959;SDS011;22043;50.970;7.192;2023-06-14T14:44:08;2.13;;;1.00;;
35959;SDS011;22043;50.970;7.192;2023-06-14T14:46:37;4.82;;;1.10;;
35959;SDS011;22043;50.970;7.192;2023-06-14T14:49:04;3.60;;;1.00;;
35959;SDS011;22043;50.970;7.192;2023-06-14T14:51:29;3.65;;;0.80;;
35959;SDS011;22043;50.970;7.192;2023-06-14T14:53:55;1.52;;;0.80;;
35959;SDS011;22043;50.970;7.192;2023-06-14T14:56:20;2.35;;;0.90;;
35959;SDS011;22043;50.970;7.192;2023-06-14T14:58:46;3.13;;;1.05;;
35959;SDS011;22043;50.970;7.192;2023-06-14T15:01:13;1.95;;;0.90;;
35959;SDS011;22043;50.970;7.192;2023-06-14T15:03:39;2.05;;;0.70;;
35959;SDS011;22043;50.970;7.192;2023-06-14T15:06:05;3.67;;;0.95;;
35959;SDS011;22043;50.970;7.192;2023-06-14T15:08:30;2.22;;;1.00;;
35959;SDS011;22043;50.970;7.192;2023-06-14T15:10:56;1.75;;;1.10;;
35959;SDS011;22043;50.970;7.192;2023-06-14T15:13:22;6.30;;;1.23;;
35959;SDS011;22043;50.970;7.192;2023-06-14T15:15:48;3.78;;;1.20;;
35959;SDS011;22043;50.970;7.192;2023-06-14T15:18:13;3.55;;;1.08;;
35959;SDS011;22043;50.970;7.192;2023-06-14T15:20:40;3.38;;;1.15;;
35959;SDS011;22043;50.970;7.192;2023-06-14T15:23:07;2.88;;;0.90;;
35959;SDS011;22043;50.970;7.192;2023-06-14T15:25:32;1.88;;;1.08;;
35959;SDS011;22043;50.970;7.192;2023-06-14T15:27:58;3.17;;;0.90;;
35959;SDS011;22043;50.970;7.192;2023-06-14T15:30:24;4.65;;;0.93;;
35959;SDS011;22043;50.970;7.192;2023-06-14T15:32:49;3.63;;;1.15;;
35959;SDS011;22043;50.970;7.192;2023-06-14T15:38:43;1.65;;;1.10;;
35959;SDS011;22043;50.970;7.192;2023-06-14T15:41:09;2.28;;;1.10;;
35959;SDS011;22043;50.970;7.192;2023-06-14T15:43:35;3.00;;;1.48;;
35959;SDS011;22043;50.970;7.192;2023-06-14T15:46:00;4.57;;;0.88;;
35959;SDS011;22043;50.970;7.192;2023-06-14T15:48:29;2.17;;;1.00;;
35959;SDS011;22043;50.970;7.192;2023-06-14T15:50:54;1.95;;;0.88;;
35959;SDS011;22043;50.970;7.192;2023-06-14T15:53:20;2.83;;;1.33;;
35959;SDS011;22043;50.970;7.192;2023-06-14T15:55:46;4.10;;;1.60;;
35959;SDS011;22043;50.970;7.192;2023-06-14T15:58:11;2.58;;;1.27;;
35959;SDS011;22043;50.970;7.192;2023-06-14T16:00:58;2.22;;;1.17;;